Time;durP1;ratioP1;P1;durP2;ratioP2;P2;SDS_P1;SDS_P2;PMS_P1;PMS_P2;Temp;Humidity;BMP_temperature;BMP_pressure;BME280_temperature;BME280_humidity;BME280_pressure;Samples;Min_cycle;Max_cycle;Signal;HPM_P1;HPM_P2
2021/07/01 00:00:34;;;;;;;31.88;8.52;;;;;;;12.92;81.71;101730.78;5007319;28;20719;-67
2021/07/01 00:02:59;;;;;;;22.02;8.13;;;;;;;12.87;81.80;101732.69;5006584;28;20025;-67
2021/07/01 00:05:25;;;;;;;24.13;7.97;;;;;;;12.80;82.14;101731.13;5005368;28;20095;-67
2021/07/01 00:07:50;;;;;;;25.77;7.72;;;;;;;12.79;81.54;101730.25;5022533;28;20029;-68
2021/07/01 00:10:19;;;;;;;31.70;8.85;;;;;;;12.90;81.16;101727.34;5021626;28;20061;-66
2021/07/01 00:12:44;;;;;;;21.50;6.70;;;;;;;12.97;80.30;101728.88;5007261;28;20091;-67
2021/07/01 00:15:15;;;;;;;18.10;5.85;;;;;;;12.93;80.12;101732.50;5007215;28;20030;-67
2021/07/01 00:17:41;;;;;;;24.90;6.55;;;;;;;12.91;79.26;101734.31;5007915;28;20028;-67
2021/07/01 00:20:08;;;;;;;23.05;6.22;;;;;;;12.90;79.68;101729.97;5007294;28;20053;-66
2021/07/01 00:22:33;;;;;;;17.42;5.93;;;;;;;12.85;79.77;101726.59;5022506;28;20065;-66
2021/07/01 00:24:58;;;;;;;25.13;5.97;;;;;;;12.87;79.49;101732.69;5006879;28;20065;-66
2021/07/01 00:27:24;;;;;;;18.02;5.65;;;;;;;12.90;79.55;101729.97;5007192;28;20495;-67
2021/07/01 00:29:49;;;;;;;25.10;6.13;;;;;;;12.90;79.07;101728.19;5021562;28;20453;-67
2021/07/01 00:32:14;;;;;;;16.83;6.05;;;;;;;12.87;79.46;101728.25;5006941;28;20455;-67
2021/07/01 00:34:40;;;;;;;19.20;5.43;;;;;;;12.93;79.54;101723.75;5006702;28;20489;-67
2021/07/01 00:37:05;;;;;;;18.40;6.07;;;;;;;12.88;79.46;101726.50;5006587;28;20415;-67
2021/07/01 00:39:30;;;;;;;18.40;5.85;;;;;;;12.85;79.99;101726.59;5006769;28;20422;-67
2021/07/01 00:41:56;;;;;;;16.27;6.00;;;;;;;12.84;79.59;101727.50;5004969;28;20030;-67
2021/07/01 00:44:21;;;;;;;18.73;5.80;;;;;;;12.83;79.90;101725.78;5006766;28;20116;-68
2021/07/01 00:46:46;;;;;;;17.98;5.40;;;;;;;12.86;78.99;101728.31;5006039;28;20117;-67
2021/07/01 00:49:12;;;;;;;20.05;6.30;;;;;;;12.86;79.18;101729.19;5021725;28;20063;-67
2021/07/01 00:51:39;;;;;;;15.30;5.80;;;;;;;12.88;78.70;101726.50;5005055;28;20022;-67
2021/07/01 00:54:04;;;;;;;19.88;6.20;;;;;;;12.84;79.32;101732.78;5006462;28;20057;-67
2021/07/01 00:56:36;;;;;;;16.17;5.80;;;;;;;12.88;79.15;101729.16;5006582;28;20057;-67
2021/07/01 00:59:02;;;;;;;20.25;6.53;;;;;;;12.90;78.77;101727.34;5020473;28;20455;-67
2021/07/01 01:01:27;;;;;;;19.02;6.13;;;;;;;12.88;78.91;101724.72;5021705;28;20054;-67
2021/07/01 01:03:53;;;;;;;25.25;6.38;;;;;;;12.83;79.36;101725.78;5006101;28;20033;-67
2021/07/01 01:06:18;;;;;;;27.02;6.10;;;;;;;12.79;79.09;101724.13;5006389;28;20029;-67
2021/07/01 01:08:43;;;;;;;25.20;6.72;;;;;;;12.75;78.81;101718.97;5005773;28;20390;-67
2021/07/01 01:11:09;;;;;;;17.33;5.57;;;;;;;12.74;78.82;101719.00;5006197;28;20085;-67
2021/07/01 01:13:34;;;;;;;20.95;6.30;;;;;;;12.73;78.77;101712.00;5020612;28;20087;-67
2021/07/01 01:16:01;;;;;;;23.88;6.82;;;;;;;12.74;79.46;101708.47;5004915;28;20076;-68
2021/07/01 01:18:27;;;;;;;27.92;6.93;;;;;;;12.67;79.33;101715.66;5004346;28;20022;-67
2021/07/01 01:20:54;;;;;;;19.92;6.45;;;;;;;12.66;79.31;101716.56;5020887;28;20036;-68
2021/07/01 01:23:20;;;;;;;20.23;6.15;;;;;;;12.69;79.38;101713.88;5005566;28;20030;-68
2021/07/01 01:25:52;;;;;;;35.50;6.75;;;;;;;12.73;78.40;101706.75;5004150;28;20029;-67
2021/07/01 01:28:18;;;;;;;23.10;6.45;;;;;;;12.73;78.10;101714.66;5005539;28;20029;-67
2021/07/01 01:30:43;;;;;;;18.30;6.72;;;;;;;12.73;78.56;101712.00;5020367;28;20084;-67
2021/07/01 01:33:10;;;;;;;19.35;6.03;;;;;;;12.77;78.52;101712.78;5006163;28;20021;-68
2021/07/01 01:35:36;;;;;;;21.58;5.85;;;;;;;12.78;78.01;101714.53;5005773;28;20026;-67
2021/07/01 01:38:03;;;;;;;17.30;6.05;;;;;;;12.75;77.92;101718.97;5004940;28;20022;-67
2021/07/01 01:40:29;;;;;;;21.42;6.43;;;;;;;12.75;77.99;101718.97;5005637;28;20072;-67
2021/07/01 01:42:54;;;;;;;17.40;5.50;;;;;;;12.72;78.10;101713.75;5005538;28;20493;-67
2021/07/01 01:45:20;;;;;;;16.58;5.15;;;;;;;12.80;78.01;101716.19;5005019;28;20105;-67
2021/07/01 01:47:49;;;;;;;20.15;5.53;;;;;;;12.76;78.13;101714.53;5005443;28;20502;-66
2021/07/01 01:50:19;;;;;;;20.60;5.65;;;;;;;12.76;78.20;101714.53;5005383;28;20026;-66
2021/07/01 01:52:45;;;;;;;17.77;5.20;;;;;;;12.74;78.21;101711.13;5004983;28;20045;-67
2021/07/01 01:55:12;;;;;;;15.68;5.63;;;;;;;12.78;78.27;101711.88;5020740;28;20022;-66
2021/07/01 01:57:38;;;;;;;23.75;6.05;;;;;;;12.74;78.49;101711.13;5004941;28;20033;-65
2021/07/01 02:00:04;;;;;;;16.45;5.40;;;;;;;12.72;78.65;101713.75;5005320;28;20049;-66
2021/07/01 02:02:30;;;;;;;18.40;7.05;;;;;;;12.73;78.65;101704.97;5020213;28;20133;-67
2021/07/01 02:04:55;;;;;;;23.52;6.88;;;;;;;12.68;78.79;101706.00;5005360;28;20026;-67
2021/07/01 02:07:20;;;;;;;17.98;5.97;;;;;;;12.73;79.03;101709.38;5004946;28;20026;-67
2021/07/01 02:09:46;;;;;;;23.63;5.82;;;;;;;12.70;79.05;101710.31;5005280;28;20036;-67
2021/07/01 02:12:11;;;;;;;27.92;6.43;;;;;;;12.69;78.97;101708.59;5004764;28;20434;-67
2021/07/01 02:14:36;;;;;;;21.63;6.35;;;;;;;12.73;79.16;101714.66;5005188;28;20072;-67
2021/07/01 02:17:02;;;;;;;22.02;5.65;;;;;;;12.75;79.65;101708.44;5020404;28;20026;-67
2021/07/01 02:19:28;;;;;;;18.30;6.40;;;;;;;12.72;79.30;101703.22;5004887;28;20069;-67
2021/07/01 02:21:53;;;;;;;20.27;6.57;;;;;;;12.69;80.22;101713.88;5004920;28;20029;-66
2021/07/01 02:24:19;;;;;;;24.42;5.82;;;;;;;12.70;80.41;101715.59;5019913;28;20029;-67
2021/07/01 02:26:44;;;;;;;24.52;6.97;;;;;;;12.61;80.81;101713.19;5004068;28;20113;-67
2021/07/01 02:29:09;;;;;;;21.20;5.95;;;;;;;12.56;81.44;101709.84;5008268;28;20029;-67
2021/07/01 02:31:35;;;;;;;20.77;7.03;;;;;;;12.53;81.76;101707.31;5007517;28;20113;-67
2021/07/01 02:34:00;;;;;;;21.58;7.07;;;;;;;12.44;82.35;101713.69;5008347;28;20475;-67
2021/07/01 02:36:25;;;;;;;21.92;6.80;;;;;;;12.36;83.03;101716.50;5008816;28;20380;-67
2021/07/01 02:38:51;;;;;;;19.48;7.75;;;;;;;12.39;83.57;101721.69;5007206;28;20463;-67
2021/07/01 02:41:16;;;;;;;28.60;7.88;;;;;;;12.30;83.54;101716.66;5008064;28;20033;-67
2021/07/01 02:43:41;;;;;;;22.67;7.35;;;;;;;12.38;83.08;101717.31;5023989;28;20041;-66
2021/07/01 02:46:07;;;;;;;24.23;8.00;;;;;;;12.37;83.34;101712.97;5007925;28;20022;-67
2021/07/01 02:48:32;;;;;;;24.23;7.65;;;;;;;12.43;82.99;101711.94;5008595;28;20398;-66
2021/07/01 02:50:57;;;;;;;22.40;7.18;;;;;;;12.43;83.03;101706.69;5007361;28;20108;-66
2021/07/01 02:53:23;;;;;;;33.38;7.95;;;;;;;12.43;82.78;101704.91;5008533;28;20026;-67
2021/07/01 02:55:48;;;;;;;26.00;7.70;;;;;;;12.46;82.87;101697.84;5008027;28;20034;-67
2021/07/01 02:58:13;;;;;;;24.90;7.00;;;;;;;12.50;82.43;101705.63;5008854;28;20026;-67
2021/07/01 03:00:39;;;;;;;23.90;7.18;;;;;;;12.49;82.33;101703.88;5009103;28;20024;-67
2021/07/01 03:03:04;;;;;;;31.45;8.20;;;;;;;12.46;82.46;101703.97;5008403;28;20095;-67
2021/07/01 03:05:29;;;;;;;30.17;7.75;;;;;;;12.49;82.36;101703.00;5009015;28;20398;-67
2021/07/01 03:07:55;;;;;;;24.80;7.20;;;;;;;12.52;82.08;101698.53;5009272;28;20387;-67
2021/07/01 03:10:20;;;;;;;24.38;7.57;;;;;;;12.50;81.96;101691.59;5008005;28;20032;-67
2021/07/01 03:12:45;;;;;;;25.00;6.72;;;;;;;12.56;81.62;101702.78;5008342;28;20026;-67
2021/07/01 03:15:11;;;;;;;26.77;7.97;;;;;;;12.57;81.35;101704.53;5008531;28;20087;-67
2021/07/01 03:17:38;;;;;;;20.65;7.78;;;;;;;12.58;82.09;101702.78;5008235;28;20029;-67
2021/07/01 03:20:04;;;;;;;34.33;8.13;;;;;;;12.55;81.75;101701.09;5008416;28;20486;-66
2021/07/01 03:22:30;;;;;;;22.25;7.13;;;;;;;12.58;82.00;101695.72;5006254;28;20073;-67
2021/07/01 03:24:55;;;;;;;25.92;7.05;;;;;;;12.56;81.52;101697.53;5008036;28;20116;-66
2021/07/01 03:27:20;;;;;;;27.20;7.75;;;;;;;12.58;81.66;101697.50;5008005;28;20021;-67
2021/07/01 03:29:46;;;;;;;23.75;7.18;;;;;;;12.63;81.18;101698.25;5007603;28;20021;-66
2021/07/01 03:32:11;;;;;;;20.55;6.68;;;;;;;12.63;81.05;101692.97;5007764;28;20026;-67
2021/07/01 03:34:36;;;;;;;25.42;6.43;;;;;;;12.66;80.90;101692.03;5007422;28;20021;-67
2021/07/01 03:37:02;;;;;;;19.90;6.32;;;;;;;12.68;80.75;101700.75;5007353;28;20045;-67
2021/07/01 03:39:27;;;;;;;28.30;6.63;;;;;;;12.68;81.04;101698.13;5004843;28;20026;-67
2021/07/01 03:41:52;;;;;;;26.15;7.40;;;;;;;12.67;80.80;101699.88;5007520;28;20549;-67
2021/07/01 03:44:18;;;;;;;26.33;6.45;;;;;;;12.72;80.94;101697.97;5007182;28;20065;-67
2021/07/01 03:46:45;;;;;;;21.42;6.30;;;;;;;12.67;80.32;101699.88;5007030;28;20053;-67
2021/07/01 03:49:12;;;;;;;21.17;6.88;;;;;;;12.61;81.15;101700.03;5006934;28;20084;-67
2021/07/01 03:51:37;;;;;;;26.55;5.97;;;;;;;12.71;81.29;101705.91;5006060;28;20109;-67
2021/07/01 03:54:04;;;;;;;23.90;6.35;;;;;;;12.68;80.45;101706.00;5007102;28;20064;-66
2021/07/01 03:56:40;;;;;;;22.08;5.68;;;;;;;12.68;80.95;101704.22;5006536;28;20018;-66
2021/07/01 03:59:07;;;;;;;15.52;5.57;;;;;;;12.66;81.40;101713.94;5006931;28;20541;-66
2021/07/01 04:01:32;;;;;;;22.23;6.57;;;;;;;12.64;81.99;101715.75;5006576;28;20022;-67
2021/07/01 04:03:57;;;;;;;20.73;5.93;;;;;;;12.66;82.19;101700.78;5007239;28;20273;-66
2021/07/01 04:06:23;;;;;;;22.13;7.10;;;;;;;12.63;82.41;101703.50;5005371;28;20036;-67
2021/07/01 04:08:48;;;;;;;16.50;6.20;;;;;;;12.62;82.85;101699.13;5006943;28;20120;-67
2021/07/01 04:11:14;;;;;;;25.92;7.72;;;;;;;12.64;82.73;101709.63;5006696;28;20028;-67
2021/07/01 04:13:39;;;;;;;21.13;6.35;;;;;;;12.66;82.80;101711.31;5007079;28;20029;-67
2021/07/01 04:16:05;;;;;;;23.50;6.55;;;;;;;12.69;82.93;101705.97;5007169;28;20092;-67
2021/07/01 04:18:30;;;;;;;23.40;7.65;;;;;;;12.68;83.08;101712.13;5005161;28;20037;-68
2021/07/01 04:20:55;;;;;;;26.17;6.88;;;;;;;12.75;82.58;101705.78;5006670;28;20340;-67
2021/07/01 04:23:21;;;;;;;20.77;6.45;;;;;;;12.78;83.13;101702.22;5005033;28;20715;-66
2021/07/01 04:25:50;;;;;;;22.63;5.40;;;;;;;12.83;82.74;101705.56;5006723;28;20065;-67
2021/07/01 04:28:15;;;;;;;17.05;5.30;;;;;;;12.89;82.32;101709.81;5006443;28;20105;-66
2021/07/01 04:30:41;;;;;;;16.60;5.53;;;;;;;12.90;82.40;101711.53;5006840;28;20063;-67
2021/07/01 04:33:07;;;;;;;21.05;5.97;;;;;;;12.86;82.63;101717.78;4988809;28;20475;-67
2021/07/01 04:35:32;;;;;;;19.45;5.53;;;;;;;12.83;82.80;101716.09;5006814;28;20035;-67
2021/07/01 04:37:57;;;;;;;10.98;4.13;;;;;;;12.84;82.69;101707.31;5006430;28;20021;-66
2021/07/01 04:40:23;;;;;;;10.70;4.35;;;;;;;12.80;82.48;101710.94;5006261;28;20130;-66
2021/07/01 04:42:48;;;;;;;12.50;4.85;;;;;;;12.69;82.85;101713.88;5006520;28;20033;-66
2021/07/01 04:45:13;;;;;;;13.93;4.60;;;;;;;12.66;83.32;101715.72;5004730;28;20114;-67
2021/07/01 04:47:39;;;;;;;13.70;4.40;;;;;;;12.67;83.37;101709.56;5005180;28;20025;-67
2021/07/01 04:50:05;;;;;;;14.35;4.50;;;;;;;12.74;83.08;101703.22;5005538;28;20498;-67
2021/07/01 04:52:30;;;;;;;15.02;5.85;;;;;;;12.74;83.32;101708.47;5004861;28;20041;-67
2021/07/01 04:54:55;;;;;;;19.02;5.88;;;;;;;12.75;83.36;101708.44;5004958;28;20398;-66
2021/07/01 04:57:21;;;;;;;22.77;5.68;;;;;;;12.81;83.32;101706.53;5007057;28;20698;-67
2021/07/01 04:59:46;;;;;;;16.23;5.57;;;;;;;12.82;83.55;101703.00;5005966;28;20368;-67
2021/07/01 05:02:12;;;;;;;16.00;5.65;;;;;;;12.87;83.50;101707.19;5006448;28;20502;-67
2021/07/01 05:04:37;;;;;;;17.98;6.05;;;;;;;12.94;83.37;101710.53;5004794;28;20429;-67
2021/07/01 05:07:03;;;;;;;21.65;6.00;;;;;;;12.97;82.95;101713.06;5005566;28;20030;-67
2021/07/01 05:09:28;;;;;;;20.42;6.50;;;;;;;12.98;82.95;101716.56;5006135;28;20033;-67
2021/07/01 05:11:53;;;;;;;14.35;5.47;;;;;;;13.04;82.55;101717.25;5005496;28;20022;-67
2021/07/01 05:14:19;;;;;;;27.52;6.78;;;;;;;13.03;82.47;101709.41;5005662;28;20021;-68
2021/07/01 05:16:44;;;;;;;21.58;6.55;;;;;;;13.05;82.65;101710.22;5005376;28;20403;-66
2021/07/01 05:19:09;;;;;;;24.92;6.00;;;;;;;13.15;82.30;101716.09;5005371;28;20056;-67
2021/07/01 05:21:35;;;;;;;24.83;5.68;;;;;;;13.15;82.35;101713.47;5004906;28;20052;-67
2021/07/01 05:24:00;;;;;;;20.95;6.15;;;;;;;13.25;81.89;101707.00;5005440;28;20081;-66
2021/07/01 05:26:25;;;;;;;20.77;6.63;;;;;;;13.32;81.57;101716.44;5005116;28;20395;-67
2021/07/01 05:28:51;;;;;;;26.98;6.85;;;;;;;13.32;81.74;101713.81;5005199;28;20387;-68
2021/07/01 05:31:16;;;;;;;19.80;6.68;;;;;;;13.45;81.55;101719.59;5005348;28;20396;-67
2021/07/01 05:33:42;;;;;;;34.38;7.35;;;;;;;13.46;81.80;101712.53;5003565;28;20022;-67
2021/07/01 05:36:08;;;;;;;20.00;6.28;;;;;;;13.44;81.63;101717.84;5005839;28;20180;-67
2021/07/01 05:38:33;;;;;;;20.80;7.13;;;;;;;13.36;81.91;101715.44;4987396;28;20022;-67
2021/07/01 05:40:59;;;;;;;34.40;8.32;;;;;;;13.32;81.89;101710.28;5009770;28;20056;-67
2021/07/01 05:43:25;;;;;;;26.73;7.97;;;;;;;13.31;81.94;101713.84;5005172;28;20067;-67
2021/07/01 05:45:51;;;;;;;25.55;8.20;;;;;;;13.31;82.19;101719.97;5004603;28;20105;-66
2021/07/01 05:48:18;;;;;;;26.60;8.18;;;;;;;13.37;81.63;101711.00;5004818;28;20710;-66
2021/07/01 05:50:49;;;;;;;25.60;6.78;;;;;;;13.30;81.22;101712.97;5005223;28;20398;-67
2021/07/01 05:53:24;;;;;;;29.15;7.78;;;;;;;13.37;80.85;101709.28;5004023;28;20037;-67
2021/07/01 05:55:49;;;;;;;;;;;;;;;13.38;80.41;101710.13;5005756;28;20018;-68
2021/07/01 05:58:14;;;;;;;25.27;7.13;;;;;;;13.35;80.61;101713.69;5005701;28;20459;-67
2021/07/01 06:00:39;;;;;;;28.95;8.10;;;;;;;13.42;80.38;101713.53;5002203;28;20615;-66
2021/07/01 06:03:05;;;;;;;34.20;8.55;;;;;;;13.47;80.53;101711.63;5007873;28;20014;-68
2021/07/01 06:05:30;;;;;;;34.47;10.07;;;;;;;13.49;80.56;101715.09;5015416;28;20033;-67
2021/07/01 06:07:56;;;;;;;35.03;9.45;;;;;;;13.59;80.62;101716.50;5004660;28;20097;-68
2021/07/01 06:10:23;;;;;;;32.95;9.85;;;;;;;13.59;80.75;101715.66;4988464;28;20466;-67
2021/07/01 06:12:49;;;;;;;36.30;8.68;;;;;;;13.56;80.51;101721.91;4990005;28;20036;-68
2021/07/01 06:15:14;;;;;;;34.63;9.85;;;;;;;13.56;80.43;101717.47;4988607;28;20109;-68
2021/07/01 06:17:42;;;;;;;29.25;8.82;;;;;;;13.64;80.58;101729.56;4990174;28;20026;-68
2021/07/01 06:20:09;;;;;;;29.58;9.60;;;;;;;13.62;80.34;101721.72;5004786;28;20038;-67
2021/07/01 06:22:35;;;;;;;33.53;10.32;;;;;;;13.64;80.37;101714.59;4987869;28;20039;-68
2021/07/01 06:25:01;;;;;;;38.05;10.20;;;;;;;13.64;80.52;101719.84;4989340;28;20026;-68
2021/07/01 06:27:33;;;;;;;36.53;10.40;;;;;;;13.69;80.28;101722.34;4988835;28;20639;-69
2021/07/01 06:29:59;;;;;;;34.55;10.18;;;;;;;13.61;80.53;101716.50;4989114;28;20030;-66
2021/07/01 06:32:24;;;;;;;29.17;10.00;;;;;;;13.69;80.25;101728.50;5022350;28;20022;-68
2021/07/01 06:34:50;;;;;;;36.05;10.93;;;;;;;13.71;80.27;101723.19;5023744;28;20026;-67
2021/07/01 06:37:17;;;;;;;40.72;10.68;;;;;;;13.69;80.43;101728.50;5008530;28;20029;-67
2021/07/01 06:39:43;;;;;;;32.88;10.02;;;;;;;13.69;80.47;101727.63;5002579;28;20024;-67
2021/07/01 06:42:09;;;;;;;39.05;9.98;;;;;;;13.66;80.43;101731.22;5007845;28;20041;-67
2021/07/01 06:44:36;;;;;;;40.92;9.63;;;;;;;13.68;80.18;101732.06;5004526;28;20512;-67
2021/07/01 06:47:02;;;;;;;30.40;9.05;;;;;;;13.66;80.43;101733.03;5003003;28;20045;-67
2021/07/01 06:49:30;;;;;;;36.05;9.40;;;;;;;13.67;80.37;101727.69;5023897;28;20379;-66
2021/07/01 06:51:55;;;;;;;33.90;9.32;;;;;;;13.69;80.40;101728.50;5012245;28;20026;-67
2021/07/01 06:54:22;;;;;;;35.60;10.38;;;;;;;13.69;80.38;101733.78;5006832;28;20113;-68
2021/07/01 06:56:47;;;;;;;36.40;10.30;;;;;;;13.72;80.07;101727.56;5002604;28;20506;-67
2021/07/01 06:59:13;;;;;;;35.40;10.27;;;;;;;13.79;79.85;101733.47;5007715;28;20030;-68
2021/07/01 07:01:39;;;;;;;37.83;10.63;;;;;;;13.76;80.24;101734.44;5006078;28;20037;-67
2021/07/01 07:04:05;;;;;;;35.42;10.10;;;;;;;13.71;80.54;101731.94;5028197;28;20026;-67
2021/07/01 07:06:30;;;;;;;29.70;10.00;;;;;;;13.67;81.20;101734.75;5011992;28;20041;-67
2021/07/01 07:08:57;;;;;;;36.00;10.07;;;;;;;13.63;81.34;101739.25;5008028;28;20137;-67
2021/07/01 07:11:23;;;;;;;31.58;9.63;;;;;;;13.70;80.97;101740.75;5007429;28;20018;-67
2021/07/01 07:13:49;;;;;;;34.85;10.38;;;;;;;13.76;80.64;101742.34;5021104;28;20030;-67
2021/07/01 07:16:14;;;;;;;29.35;9.95;;;;;;;13.76;80.67;101739.72;5007113;28;20024;-67
2021/07/01 07:18:41;;;;;;;34.10;9.40;;;;;;;13.83;80.38;101738.59;4991809;28;20112;-68
2021/07/01 07:21:11;;;;;;;41.10;10.70;;;;;;;13.90;80.84;101741.91;4988275;28;20538;-67
2021/07/01 07:23:37;;;;;;;32.92;10.43;;;;;;;13.94;80.00;101738.28;4998044;28;20026;-66
2021/07/01 07:26:13;;;;;;;35.45;9.65;;;;;;;14.03;79.28;101739.75;4999469;28;20113;-67
2021/07/01 07:28:38;;;;;;;32.63;8.77;;;;;;;14.03;79.69;101740.59;5003765;28;20022;-66
2021/07/01 07:31:05;;;;;;;33.17;9.63;;;;;;;14.09;79.62;101744.81;5003896;28;20033;-68
2021/07/01 07:33:31;;;;;;;34.72;9.20;;;;;;;14.16;79.30;101738.41;5013976;28;20030;-67
2021/07/01 07:35:56;;;;;;;38.17;8.77;;;;;;;14.21;78.27;101738.25;4998392;28;20585;-67
2021/07/01 07:38:25;;;;;;;26.92;8.52;;;;;;;14.33;78.29;101744.91;5006940;28;20032;-67
2021/07/01 07:40:52;;;;;;;26.83;8.13;;;;;;;14.39;77.66;101749.09;5003982;28;20018;-67
2021/07/01 07:43:19;;;;;;;28.00;7.60;;;;;;;14.39;77.16;101751.72;5007531;28;20021;-67
2021/07/01 07:45:47;;;;;;;26.65;7.75;;;;;;;14.34;77.34;101751.91;5004893;28;20077;-67
2021/07/01 07:48:12;;;;;;;21.85;6.95;;;;;;;14.44;77.40;101752.44;5011022;28;20026;-67
2021/07/01 07:50:38;;;;;;;22.77;7.53;;;;;;;14.51;76.27;101748.66;5006752;28;20423;-68
2021/07/01 07:53:07;;;;;;;23.70;7.82;;;;;;;14.56;76.82;101749.34;5006835;28;20498;-67
2021/07/01 07:55:33;;;;;;;23.80;7.85;;;;;;;14.60;76.31;101750.13;5011456;28;20152;-67
2021/07/01 07:58:01;;;;;;;26.95;6.57;;;;;;;14.66;75.71;101757.84;5007242;28;20491;-67
2021/07/01 08:00:27;;;;;;;24.98;8.38;;;;;;;14.67;75.69;101749.00;5014736;28;20026;-68
2021/07/01 08:02:54;;;;;;;22.73;7.07;;;;;;;14.76;76.00;101750.47;5006287;28;20030;-67
2021/07/01 08:05:23;;;;;;;22.25;7.03;;;;;;;14.91;75.14;101752.56;5005324;28;20025;-67
2021/07/01 08:07:49;;;;;;;22.05;7.43;;;;;;;14.92;74.97;101748.13;5008603;28;20033;-67
2021/07/01 08:10:17;;;;;;;23.38;6.90;;;;;;;14.98;74.83;101746.16;5008321;28;20037;-67
2021/07/01 08:12:46;;;;;;;20.67;6.38;;;;;;;14.97;74.22;101749.69;5006370;28;20430;-68
2021/07/01 08:15:13;;;;;;;23.17;6.97;;;;;;;15.07;75.17;101750.22;5006292;28;20096;-67
2021/07/01 08:17:42;;;;;;;16.50;5.78;;;;;;;15.06;74.54;101756.41;5007513;28;20134;-69
2021/07/01 08:20:12;;;;;;;15.52;5.47;;;;;;;15.15;75.49;101755.22;5004695;28;20345;-68
2021/07/01 08:22:41;;;;;;;19.58;6.40;;;;;;;15.17;74.30;101748.94;5005711;28;20148;-68
2021/07/01 08:25:07;;;;;;;17.98;6.07;;;;;;;15.33;74.64;101751.00;5006976;28;20067;-67
2021/07/01 08:27:34;;;;;;;11.85;5.03;;;;;;;15.35;73.17;101746.53;5002309;28;20038;-67
2021/07/01 08:30:08;;;;;;;14.40;5.32;;;;;;;15.52;72.71;101750.28;4996700;28;20026;-67
2021/07/01 08:32:34;;;;;;;16.77;5.45;;;;;;;15.56;72.16;101759.84;4971306;28;20038;-67
2021/07/01 08:35:01;;;;;;;16.27;5.70;;;;;;;15.51;72.29;101760.00;5006614;28;20371;-67
2021/07/01 08:37:35;;;;;;;18.05;5.32;;;;;;;15.43;72.18;101751.50;5005174;28;20093;-66
2021/07/01 08:40:04;;;;;;;20.50;6.18;;;;;;;15.62;72.46;101764.88;5002537;28;20034;-65
2021/07/01 08:42:35;;;;;;;25.83;6.47;;;;;;;15.69;72.04;101768.13;5004949;28;20053;-68
2021/07/01 08:45:05;;;;;;;20.52;6.57;;;;;;;15.61;72.02;101771.94;5005878;28;20592;-67
2021/07/01 08:47:33;;;;;;;18.35;6.47;;;;;;;15.65;72.34;101773.56;5006844;28;20022;-67
2021/07/01 08:50:00;;;;;;;19.92;6.03;;;;;;;15.70;71.93;101777.78;5005408;28;20021;-68
2021/07/01 08:52:30;;;;;;;28.95;10.93;;;;;;;15.74;72.10;101782.03;5003833;28;20108;-67
2021/07/01 08:55:02;;;;;;;18.85;6.05;;;;;;;15.69;71.94;101781.34;5004364;28;20029;-68
2021/07/01 08:57:35;;;;;;;18.95;5.88;;;;;;;15.76;71.92;101785.50;5006245;28;20502;-67
2021/07/01 09:00:08;;;;;;;22.02;5.40;;;;;;;15.87;71.87;101788.59;5005382;28;20422;-67
2021/07/01 09:02:36;;;;;;;22.17;6.65;;;;;;;15.81;71.92;101784.41;5004924;28;20033;-68
2021/07/01 09:05:13;;;;;;;16.83;5.57;;;;;;;15.81;71.68;101787.03;5005611;28;20057;-68
2021/07/01 09:07:39;;;;;;;19.95;5.50;;;;;;;15.93;71.36;101777.75;5004914;28;20491;-68
2021/07/01 09:10:10;;;;;;;17.77;5.63;;;;;;;16.02;71.31;101784.47;5004257;28;20030;-66
2021/07/01 09:12:40;;;;;;;19.38;5.90;;;;;;;16.01;72.20;101776.59;5004726;28;20454;-67
2021/07/01 09:15:08;;;;;;;16.90;6.10;;;;;;;16.06;71.81;101779.91;4999831;28;20078;-67
2021/07/01 09:17:34;;;;;;;17.20;5.32;;;;;;;16.14;71.36;101777.81;4998401;28;20034;-68
2021/07/01 09:20:03;;;;;;;20.98;5.55;;;;;;;16.27;71.41;101776.41;5002142;28;20026;-67
2021/07/01 09:22:29;;;;;;;15.93;5.40;;;;;;;16.47;70.88;101772.00;5005553;28;20068;-67
2021/07/01 09:24:56;;;;;;;15.50;5.85;;;;;;;16.68;70.35;101767.56;4998013;28;20066;-68
2021/07/01 09:27:22;;;;;;;21.58;5.97;;;;;;;16.78;69.93;101760.97;4986001;28;20106;-67
2021/07/01 09:29:48;;;;;;;18.48;5.55;;;;;;;16.71;69.82;101774.56;5000854;28;20517;-67
2021/07/01 09:32:16;;;;;;;21.50;6.18;;;;;;;16.65;69.71;101769.53;5005568;28;20026;-67
2021/07/01 09:34:43;;;;;;;25.15;6.93;;;;;;;16.46;70.80;101779.09;5005908;28;20021;-67
2021/07/01 09:37:08;;;;;;;28.90;7.15;;;;;;;16.19;71.64;101769.69;5006354;28;20022;-68
2021/07/01 09:39:35;;;;;;;30.45;7.72;;;;;;;16.13;72.26;101781.38;5010777;28;20026;-69
2021/07/01 09:42:02;;;;;;;27.10;7.68;;;;;;;16.25;71.84;101778.22;5008635;28;20026;-68
2021/07/01 09:44:29;;;;;;;32.83;9.52;;;;;;;16.27;71.67;101776.41;5009183;28;20176;-70
2021/07/01 09:47:04;;;;;;;28.58;8.40;;;;;;;16.45;70.18;101776.53;5009157;28;20534;-67
2021/07/01 09:49:35;;;;;;;32.13;8.80;;;;;;;16.55;70.16;101780.50;5006344;28;20216;-68
2021/07/01 09:52:04;;;;;;;27.23;7.72;;;;;;;16.66;69.00;101772.09;5006373;28;20483;-69
2021/07/01 09:54:34;;;;;;;29.73;8.38;;;;;;;16.72;68.53;101778.91;4992063;28;20026;-71
2021/07/01 09:57:06;;;;;;;27.10;7.72;;;;;;;16.77;67.97;101774.28;4989994;28;20034;-68
2021/07/01 09:59:43;;;;;;;33.15;9.10;;;;;;;16.77;68.85;101772.47;4993480;28;20101;-68
2021/07/01 10:02:26;;;;;;;30.58;8.40;;;;;;;16.98;68.62;101774.25;5005086;28;20047;-69
2021/07/01 10:04:52;;;;;;;36.97;8.70;;;;;;;17.00;68.19;101769.75;5008292;28;20040;-68
2021/07/01 10:07:21;;;;;;;33.22;9.27;;;;;;;16.94;69.02;101769.13;5000299;28;20319;-67
2021/07/01 10:09:50;;;;;;;34.67;8.07;;;;;;;16.95;68.23;101767.31;4993062;28;20052;-68
2021/07/01 10:12:18;;;;;;;25.77;8.23;;;;;;;16.98;68.50;101768.97;5000111;28;20209;-69
2021/07/01 10:14:44;;;;;;;29.55;8.02;;;;;;;17.20;68.26;101777.66;5004108;28;20026;-69
2021/07/01 10:17:11;;;;;;;34.53;8.98;;;;;;;17.26;68.39;101784.47;4984085;28;20471;-68
2021/07/01 10:19:37;;;;;;;33.20;8.05;;;;;;;17.56;66.55;101773.34;4992574;28;20033;-68
2021/07/01 10:22:04;;;;;;;29.70;7.70;;;;;;;17.68;64.92;101780.72;5003082;28;20471;-68
2021/07/01 10:24:30;;;;;;;25.05;6.47;;;;;;;17.72;63.54;101770.84;4997900;28;20033;-68
2021/07/01 10:26:56;;;;;;;26.90;7.05;;;;;;;17.93;63.37;101773.38;5001323;28;20018;-68
2021/07/01 10:29:21;;;;;;;28.00;8.00;;;;;;;18.13;62.20;101781.25;4991909;28;20058;-68
2021/07/01 10:31:55;;;;;;;28.23;7.80;;;;;;;17.88;64.43;101777.09;4991277;28;20046;-68
2021/07/01 10:34:22;;;;;;;30.13;8.55;;;;;;;17.87;63.50;101780.72;5000893;28;20030;-68
2021/07/01 10:37:22;;;;;;;42.42;8.80;;;;;;;17.53;64.91;101786.78;4990585;28;20110;-68
2021/07/01 10:39:50;;;;;;;29.27;8.05;;;;;;;17.43;64.59;101781.91;4990531;28;20076;-68
2021/07/01 10:42:16;;;;;;;35.65;8.35;;;;;;;17.35;64.31;101789.38;5000210;28;20031;-68
2021/07/01 10:44:42;;;;;;;25.95;7.90;;;;;;;17.37;64.29;101792.78;4993415;28;20128;-68
2021/07/01 10:47:26;;;;;;;30.20;8.38;;;;;;;17.19;64.65;101793.63;4994317;28;20109;-67
2021/07/01 10:49:52;;;;;;;33.95;8.60;;;;;;;17.24;65.27;101797.81;5017979;28;20069;-68
2021/07/01 10:52:17;;;;;;;33.80;8.45;;;;;;;17.09;66.06;101801.13;5000892;28;20495;-68
2021/07/01 10:54:59;;;;;;;30.75;7.47;;;;;;;17.26;65.55;101798.56;4993033;28;20518;-68
2021/07/01 10:57:29;;;;;;;35.25;8.10;;;;;;;17.46;65.34;101799.44;4998910;28;20034;-68
2021/07/01 10:59:56;;;;;;;39.50;8.70;;;;;;;17.49;65.04;101795.78;4990268;28;20022;-70
2021/07/01 11:02:31;;;;;;;30.23;7.95;;;;;;;17.33;64.74;101800.94;4994929;28;20022;-69
2021/07/01 11:05:03;;;;;;;30.80;9.32;;;;;;;17.21;65.56;101792.63;5004978;28;20025;-67
2021/07/01 11:07:46;;;;;;;38.15;8.65;;;;;;;17.24;66.08;101797.81;5000141;28;20022;-67
2021/07/01 11:10:13;;;;;;;35.10;8.93;;;;;;;17.26;65.38;101800.38;4989791;28;20062;-66
2021/07/01 11:12:44;;;;;;;37.80;9.32;;;;;;;17.34;65.40;101800.03;4994985;28;20030;-68
2021/07/01 11:15:09;;;;;;;33.47;8.90;;;;;;;17.55;64.95;101796.38;4997200;28;20085;-68